createdAt,value
2022-12-28T00:08:10.280Z,98997.97
2022-12-28T00:28:12.963Z,98980.75
2022-12-28T00:48:15.569Z,98975.78
2022-12-28T01:08:19.280Z,98977.78
2022-12-28T01:28:22.004Z,98987.44
2022-12-28T01:48:24.803Z,98982.88
2022-12-28T02:08:27.585Z,98975.25
2022-12-28T02:28:31.518Z,98964.09
2022-12-28T02:48:52.864Z,98937.03
2022-12-28T03:08:55.550Z,98906.97
2022-12-28T03:29:17.411Z,98886.25
2022-12-28T03:49:22.028Z,98898.97
2022-12-28T04:09:25.007Z,98870.00
2022-12-28T04:29:27.748Z,98860.28
2022-12-28T04:49:30.416Z,98817.84
2022-12-28T05:09:33.120Z,98812.97
2022-12-28T05:29:35.938Z,98816.97
2022-12-28T05:49:44.712Z,98802.50
2022-12-28T06:09:47.174Z,98780.87
2022-12-28T06:29:52.272Z,98774.91
2022-12-28T06:49:55.750Z,98761.19
2022-12-28T07:09:58.213Z,98745.38
2022-12-28T07:30:00.919Z,98736.41
2022-12-28T07:50:03.755Z,98722.78
2022-12-28T08:10:06.234Z,98716.16
2022-12-28T08:30:09.878Z,98707.09
2022-12-28T08:50:12.999Z,98716.94
2022-12-28T09:10:15.934Z,98702.12
2022-12-28T09:30:18.729Z,98711.50
2022-12-28T10:11:02.979Z,98694.12
2022-12-28T10:31:05.690Z,98670.03
2022-12-28T10:51:08.317Z,98650.13
2022-12-28T11:11:10.797Z,98591.66
2022-12-28T11:31:13.450Z,98549.22
2022-12-28T11:51:16.210Z,98527.41
2022-12-28T12:11:18.790Z,98486.25
2022-12-28T12:31:22.488Z,98447.19
2022-12-28T12:51:25.133Z,98419.31
2022-12-28T13:11:27.859Z,98396.97
2022-12-28T13:31:30.754Z,98392.06
2022-12-28T13:51:34.132Z,98351.62
2022-12-28T14:11:36.889Z,98340.09
2022-12-28T14:31:40.495Z,98350.88
2022-12-28T14:51:50.080Z,98360.09
2022-12-28T15:11:52.540Z,98349.03
2022-12-28T15:31:56.151Z,98315.28
